createdAt,value
2024-03-10T00:02:18.986Z,70.00
2024-03-10T00:04:57.038Z,63.00
2024-03-10T00:07:56.649Z,66.50
2024-03-10T00:10:25.673Z,61.00
2024-03-10T00:12:55.572Z,62.00
2024-03-10T00:15:26.328Z,65.50
2024-03-10T00:18:07.801Z,63.00
2024-03-10T00:20:36.648Z,63.00
2024-03-10T00:23:07.269Z,64.00
2024-03-10T00:25:36.409Z,60.50
2024-03-10T00:28:05.299Z,64.00
2024-03-10T00:30:34.818Z,61.00
2024-03-10T00:33:09.245Z,67.00
2024-03-10T00:35:38.136Z,64.50
2024-03-10T00:38:06.630Z,61.00
2024-03-10T00:40:35.586Z,62.00
2024-03-10T00:43:04.992Z,61.00
2024-03-10T00:45:33.525Z,63.00
2024-03-10T00:48:01.733Z,63.00
2024-03-10T00:50:30.436Z,63.50
2024-03-10T00:52:59.038Z,60.00
2024-03-10T00:57:56.267Z,61.00
2024-03-10T01:00:26.372Z,64.00
2024-03-10T01:02:56.557Z,62.50
2024-03-10T01:07:54.364Z,61.00
2024-03-10T01:10:22.821Z,62.00
2024-03-10T01:12:51.068Z,62.00
2024-03-10T01:15:19.831Z,61.00
2024-03-10T01:17:48.583Z,66.00
2024-03-10T01:20:17.884Z,61.50
2024-03-10T01:22:46.711Z,57.00
2024-03-10T01:25:15.047Z,64.00
2024-03-10T01:27:44.895Z,61.50
2024-03-10T01:32:42.163Z,62.00
2024-03-10T01:35:10.579Z,66.50
2024-03-10T01:37:39.277Z,61.00
2024-03-10T01:40:10.664Z,57.00
2024-03-10T01:42:38.900Z,59.00
2024-03-10T01:45:08.384Z,60.00
2024-03-10T01:47:37.213Z,62.00
2024-03-10T01:50:07.773Z,63.00
2024-03-10T01:52:36.598Z,63.00
2024-03-10T01:55:07.806Z,64.00
2024-03-10T02:00:22.721Z,61.50
2024-03-10T02:05:24.538Z,61.00
2024-03-10T02:07:53.330Z,58.00
2024-03-10T02:10:22.641Z,63.00
2024-03-10T02:12:50.995Z,59.00
2024-03-10T02:17:51.844Z,60.00
2024-03-10T02:20:23.439Z,59.50
2024-03-10T02:22:52.465Z,61.00
2024-03-10T02:25:35.794Z,59.00
2024-03-10T02:28:22.661Z,59.00
2024-03-10T02:30:58.886Z,59.00
2024-03-10T02:36:32.427Z,62.00
2024-03-10T02:39:19.293Z,59.00
2024-03-10T02:42:06.036Z,58.50
2024-03-10T02:44:53.177Z,59.00
2024-03-10T02:47:21.584Z,60.00
2024-03-10T02:49:50.415Z,58.00
2024-03-10T02:52:20.296Z,59.50
2024-03-10T02:54:48.652Z,63.00
2024-03-10T02:57:19.943Z,61.00
2024-03-10T02:59:48.305Z,60.00
2024-03-10T03:02:20.388Z,64.00
2024-03-10T03:04:49.507Z,60.00
2024-03-10T03:07:19.730Z,57.50
2024-03-10T03:09:48.831Z,59.50
2024-03-10T03:12:18.125Z,58.00
2024-03-10T03:14:46.575Z,57.00
2024-03-10T03:17:15.719Z,58.00
2024-03-10T03:19:45.180Z,56.00
2024-03-10T03:22:13.446Z,56.50
2024-03-10T03:24:41.683Z,56.00
2024-03-10T03:27:10.373Z,57.50
2024-03-10T03:29:38.852Z,54.50
2024-03-10T03:32:07.381Z,59.00
2024-03-10T03:34:36.011Z,58.00
2024-03-10T03:37:11.974Z,57.50
2024-03-10T03:39:40.414Z,58.00
2024-03-10T03:42:08.818Z,57.00
2024-03-10T03:44:37.271Z,60.50
2024-03-10T03:47:10.131Z,57.00
2024-03-10T03:49:39.461Z,59.00
2024-03-10T03:52:08.112Z,62.00
2024-03-10T03:54:36.726Z,59.00
2024-03-10T03:57:05.582Z,56.00
2024-03-10T03:59:40.728Z,59.00
2024-03-10T04:02:09.583Z,57.00
2024-03-10T04:04:38.737Z,56.50
2024-03-10T04:07:07.179Z,59.50
2024-03-10T04:09:35.631Z,55.00
2024-03-10T04:12:04.322Z,59.00
2024-03-10T04:14:32.818Z,58.00
2024-03-10T04:17:01.422Z,55.00
2024-03-10T04:19:29.934Z,53.33
2024-03-10T04:21:59.564Z,56.00
2024-03-10T04:24:28.098Z,55.00
2024-03-10T04:26:56.664Z,56.00
2024-03-10T04:29:26.714Z,59.00
2024-03-10T04:31:55.415Z,55.00
2024-03-10T04:34:23.619Z,55.00
2024-03-10T04:36:53.045Z,52.67
2024-03-10T04:39:24.183Z,53.00
2024-03-10T04:41:55.358Z,59.50
2024-03-10T04:44:24.291Z,90.00
2024-03-10T04:46:52.923Z,60.00
2024-03-10T04:49:21.396Z,60.50
2024-03-10T04:51:50.242Z,56.00
2024-03-10T04:54:18.806Z,56.00
2024-03-10T04:56:56.136Z,56.00
2024-03-10T04:59:27.526Z,56.00
2024-03-10T05:01:56.081Z,56.00
2024-03-10T05:04:24.580Z,58.00
2024-03-10T05:06:56.899Z,58.50
2024-03-10T05:09:25.438Z,53.00
2024-03-10T05:11:54.060Z,55.50
2024-03-10T05:14:22.739Z,55.00
2024-03-10T05:19:19.637Z,54.50
2024-03-10T05:21:51.384Z,53.50
2024-03-10T05:24:19.855Z,54.50
2024-03-10T05:26:48.283Z,52.50
2024-03-10T05:29:16.896Z,54.00
2024-03-10T05:36:47.078Z,56.50
2024-03-10T05:39:15.945Z,56.00
2024-03-10T05:41:44.510Z,59.00
2024-03-10T05:44:15.477Z,55.50
2024-03-10T05:46:44.219Z,55.00
2024-03-10T05:49:13.978Z,55.00
2024-03-10T05:54:11.498Z,56.00
2024-03-10T05:56:40.652Z,57.00
2024-03-10T05:59:09.093Z,57.50
2024-03-10T06:01:37.637Z,56.00
2024-03-10T06:04:06.171Z,58.00
2024-03-10T06:06:34.890Z,58.00
2024-03-10T06:11:35.470Z,58.00
2024-03-10T06:14:05.137Z,56.00
2024-03-10T06:16:34.025Z,51.00
2024-03-10T06:19:07.588Z,52.50
2024-03-10T06:21:54.508Z,57.00
2024-03-10T06:24:41.473Z,53.00
2024-03-10T06:29:38.466Z,65.00
2024-03-10T06:32:07.506Z,57.00
2024-03-10T06:34:38.470Z,56.50
2024-03-10T06:37:07.167Z,61.00
2024-03-10T06:39:55.988Z,62.00
2024-03-10T06:42:24.535Z,57.00
2024-03-10T06:44:55.464Z,56.00
2024-03-10T06:47:33.244Z,56.00
2024-03-10T06:50:01.970Z,53.50
2024-03-10T06:52:30.334Z,54.50
2024-03-10T06:55:00.627Z,57.00
2024-03-10T06:57:34.843Z,55.00
2024-03-10T07:00:14.066Z,55.00
2024-03-10T07:02:47.035Z,56.00
2024-03-10T07:05:19.747Z,58.00
2024-03-10T07:07:52.106Z,51.00
2024-03-10T07:10:25.526Z,53.00
2024-03-10T07:12:54.182Z,55.00
2024-03-10T07:15:24.122Z,55.00
2024-03-10T07:17:57.282Z,56.00
2024-03-10T07:20:26.614Z,55.00
2024-03-10T07:22:58.636Z,56.00
2024-03-10T07:25:34.972Z,52.25
2024-03-10T07:28:45.350Z,55.50
2024-03-10T07:31:13.925Z,53.00
2024-03-10T07:33:43.117Z,58.00
2024-03-10T07:38:46.239Z,55.00
2024-03-10T07:41:23.171Z,57.00
2024-03-10T07:43:51.749Z,54.50
2024-03-10T07:46:33.067Z,48.50
2024-03-10T07:49:07.475Z,53.00
2024-03-10T07:51:36.298Z,55.50
2024-03-10T07:54:07.963Z,53.00
2024-03-10T07:56:43.625Z,54.00
2024-03-10T07:59:46.146Z,48.00
2024-03-10T08:03:04.099Z,47.50
2024-03-10T08:05:48.842Z,49.00
2024-03-10T08:09:08.422Z,50.50
2024-03-10T08:11:53.028Z,48.00
2024-03-10T08:14:50.639Z,48.00
2024-03-10T08:17:27.758Z,50.50
2024-03-10T08:22:48.538Z,48.00
2024-03-10T08:25:20.591Z,49.00
2024-03-10T08:28:00.264Z,48.00
2024-03-10T08:30:43.491Z,48.00
2024-03-10T08:33:44.495Z,47.00
2024-03-10T08:36:43.334Z,47.50
2024-03-10T08:40:02.734Z,50.00
2024-03-10T08:42:54.243Z,51.00
2024-03-10T08:45:41.855Z,57.50
2024-03-10T08:48:24.693Z,54.00
2024-03-10T08:50:58.876Z,54.00
2024-03-10T08:53:55.679Z,54.67
2024-03-10T08:56:28.503Z,52.50
2024-03-10T08:58:57.298Z,50.00
2024-03-10T09:01:25.671Z,50.00
2024-03-10T09:03:56.700Z,48.00
2024-03-10T09:11:46.547Z,47.00
2024-03-10T09:14:15.385Z,43.00
2024-03-10T09:16:46.633Z,48.50
2024-03-10T09:19:15.719Z,42.00
2024-03-10T09:21:45.544Z,44.00
2024-03-10T09:24:19.818Z,45.00
2024-03-10T09:26:49.112Z,45.00
2024-03-10T09:29:18.884Z,42.00
2024-03-10T09:31:52.005Z,44.00
2024-03-10T09:34:29.523Z,48.00
2024-03-10T09:36:58.105Z,42.00
2024-03-10T09:39:26.440Z,39.50
2024-03-10T09:41:54.898Z,43.00
2024-03-10T09:44:24.934Z,39.00
2024-03-10T09:47:02.573Z,42.00
2024-03-10T09:49:31.906Z,39.00
2024-03-10T09:52:03.379Z,37.00
2024-03-10T09:57:07.191Z,40.00
2024-03-10T09:59:45.601Z,40.00
2024-03-10T10:02:53.101Z,39.00
2024-03-10T10:05:56.120Z,43.00
2024-03-10T10:08:46.613Z,40.00
2024-03-10T10:11:28.189Z,41.00
2024-03-10T10:14:28.647Z,38.00
2024-03-10T10:17:04.634Z,46.50
2024-03-10T10:19:38.258Z,39.00
2024-03-10T10:24:43.435Z,45.00
2024-03-10T10:27:11.833Z,39.50
2024-03-10T10:29:51.754Z,39.00
2024-03-10T10:32:24.814Z,39.00
2024-03-10T10:34:54.566Z,36.00
2024-03-10T10:37:27.328Z,40.50
2024-03-10T10:39:55.574Z,34.00
2024-03-10T10:42:33.729Z,39.00
2024-03-10T10:45:09.601Z,42.00
2024-03-10T10:47:42.138Z,39.00
2024-03-10T10:50:22.210Z,41.00
2024-03-10T10:52:51.409Z,41.00
2024-03-10T10:55:21.288Z,39.00
2024-03-10T10:57:49.696Z,35.50
2024-03-10T11:00:32.228Z,34.00
2024-03-10T11:03:10.829Z,38.00
2024-03-10T11:08:10.957Z,41.00
2024-03-10T11:10:41.022Z,41.00
2024-03-10T11:13:13.893Z,40.00
2024-03-10T11:15:43.775Z,43.00
2024-03-10T11:18:27.007Z,40.50
2024-03-10T11:20:59.829Z,39.00
2024-03-10T11:23:47.758Z,40.00
2024-03-10T11:26:27.886Z,42.00
2024-03-10T11:28:59.853Z,41.00
2024-03-10T11:31:35.308Z,36.00
2024-03-10T11:34:05.795Z,39.00
2024-03-10T11:36:39.888Z,38.50
2024-03-10T11:39:21.120Z,37.00
2024-03-10T11:41:51.067Z,39.00
2024-03-10T11:44:20.379Z,38.00
2024-03-10T11:46:49.364Z,38.00
2024-03-10T11:49:17.840Z,40.00
2024-03-10T11:51:47.396Z,41.00
2024-03-10T11:56:45.119Z,39.00
2024-03-10T11:59:15.002Z,40.00
2024-03-10T12:01:43.588Z,38.00
2024-03-10T12:04:14.240Z,39.00
2024-03-10T12:06:42.735Z,39.00
2024-03-10T12:09:14.485Z,37.00
2024-03-10T12:11:43.806Z,37.00
2024-03-10T12:16:49.243Z,36.00
2024-03-10T12:19:20.711Z,37.00
2024-03-10T12:21:50.552Z,37.50
2024-03-10T12:24:24.346Z,36.50
2024-03-10T12:26:55.337Z,32.00
2024-03-10T12:29:23.960Z,35.00
2024-03-10T12:31:54.861Z,36.50
2024-03-10T12:34:24.851Z,36.00
2024-03-10T12:36:53.522Z,35.00
2024-03-10T12:39:32.934Z,34.50
2024-03-10T12:42:01.497Z,36.00
2024-03-10T12:44:31.915Z,34.50
2024-03-10T12:47:00.496Z,33.00
2024-03-10T12:49:28.941Z,35.00
2024-03-10T12:51:57.174Z,32.00
2024-03-10T12:54:25.489Z,30.50
2024-03-10T12:59:22.367Z,32.50
2024-03-10T13:01:52.126Z,32.00
2024-03-10T13:04:20.571Z,32.50
2024-03-10T13:06:49.546Z,38.00
2024-03-10T13:09:17.803Z,36.00
2024-03-10T13:11:46.867Z,33.00
2024-03-10T13:14:15.886Z,34.00
2024-03-10T13:16:46.543Z,32.50
2024-03-10T13:19:15.001Z,34.50
2024-03-10T13:21:44.347Z,31.50
2024-03-10T13:26:40.827Z,31.00
2024-03-10T13:29:12.514Z,27.50
2024-03-10T13:31:41.111Z,32.50
2024-03-10T13:34:18.604Z,33.00
2024-03-10T13:36:50.581Z,32.00
2024-03-10T13:39:21.959Z,30.00
2024-03-10T13:44:28.301Z,28.67
2024-03-10T13:46:57.960Z,29.00
2024-03-10T13:49:26.628Z,28.00
2024-03-10T13:52:19.744Z,28.00
2024-03-10T13:54:52.040Z,31.00
2024-03-10T13:57:25.484Z,30.00
2024-03-10T14:00:00.917Z,31.00
2024-03-10T14:05:16.226Z,32.50
2024-03-10T14:07:47.834Z,27.00
2024-03-10T14:10:18.752Z,26.00
2024-03-10T14:12:47.651Z,32.00
2024-03-10T14:15:17.029Z,26.33
2024-03-10T14:17:46.323Z,33.50
2024-03-10T14:20:27.600Z,37.00
2024-03-10T14:22:56.147Z,27.00
2024-03-10T14:25:30.555Z,51.00
2024-03-10T14:28:02.014Z,52.00
2024-03-10T14:30:30.769Z,36.00
2024-03-10T14:33:01.989Z,48.00
2024-03-10T14:35:33.029Z,37.00
2024-03-10T14:38:05.762Z,88.50
2024-03-10T14:40:35.066Z,57.00
2024-03-10T14:43:05.620Z,35.00
2024-03-10T14:45:34.061Z,51.50
2024-03-10T14:48:02.726Z,53.00
2024-03-10T14:50:42.365Z,33.00
2024-03-10T14:53:13.904Z,54.00
2024-03-10T14:55:42.349Z,33.00
2024-03-10T14:58:11.422Z,30.00
2024-03-10T15:03:11.412Z,46.00
2024-03-10T15:05:44.818Z,47.50
2024-03-10T15:08:18.443Z,40.50
2024-03-10T15:10:50.917Z,32.00
2024-03-10T15:13:23.660Z,29.00
2024-03-10T15:16:12.753Z,32.50
2024-03-10T15:18:44.102Z,35.00
2024-03-10T15:21:15.504Z,36.00
2024-03-10T15:23:48.989Z,36.50
2024-03-10T15:26:18.552Z,34.00
2024-03-10T15:28:50.787Z,34.00
2024-03-10T15:31:19.933Z,33.00
2024-03-10T15:33:51.228Z,36.00
2024-03-10T15:36:22.404Z,38.50
2024-03-10T15:38:57.827Z,55.50
2024-03-10T15:41:29.895Z,44.00
2024-03-10T15:44:03.366Z,53.00
2024-03-10T15:46:33.618Z,38.00
2024-03-10T15:49:02.106Z,35.50
2024-03-10T15:51:31.834Z,35.00
2024-03-10T15:54:02.602Z,39.00
2024-03-10T15:56:33.561Z,38.00
2024-03-10T15:59:05.364Z,40.00
2024-03-10T16:01:35.184Z,42.00
2024-03-10T16:04:08.179Z,38.00
2024-03-10T16:06:37.853Z,36.00
2024-03-10T16:09:11.946Z,43.50
2024-03-10T16:11:42.589Z,69.00
2024-03-10T16:14:18.054Z,68.00
2024-03-10T16:16:48.814Z,87.50
2024-03-10T16:19:23.395Z,55.00
2024-03-10T16:21:52.926Z,61.50
2024-03-10T16:24:21.250Z,59.00
2024-03-10T16:26:52.777Z,57.00
2024-03-10T16:29:23.887Z,54.50
2024-03-10T16:32:01.778Z,53.00
2024-03-10T16:34:33.170Z,41.50
2024-03-10T16:37:06.493Z,45.00
2024-03-10T16:39:45.426Z,52.00
2024-03-10T16:42:21.385Z,58.50
2024-03-10T16:44:54.273Z,60.00
2024-03-10T16:47:23.151Z,98.67
2024-03-10T16:49:51.591Z,92.00
2024-03-10T16:52:24.493Z,84.00
2024-03-10T17:00:15.238Z,75.00
2024-03-10T17:02:45.904Z,64.00
2024-03-10T17:05:22.776Z,71.50
2024-03-10T17:07:51.735Z,68.50
2024-03-10T17:10:26.188Z,64.00
2024-03-10T17:12:58.688Z,65.00
2024-03-10T17:15:33.779Z,65.00
2024-03-10T17:18:09.422Z,61.00
2024-03-10T17:20:58.006Z,60.50
2024-03-10T17:23:27.694Z,84.67
2024-03-10T17:26:20.694Z,76.00
2024-03-10T17:28:53.203Z,75.00
2024-03-10T17:33:55.818Z,47.00
2024-03-10T17:36:29.935Z,47.50
2024-03-10T17:39:07.960Z,52.00
2024-03-10T17:42:03.880Z,50.00
2024-03-10T17:44:45.665Z,49.00
2024-03-10T17:47:48.353Z,53.00
2024-03-10T17:50:28.336Z,50.00
2024-03-10T17:53:00.026Z,49.00
2024-03-10T17:55:31.250Z,52.00
2024-03-10T17:58:01.605Z,50.50
2024-03-10T18:00:33.798Z,49.00
2024-03-10T18:03:11.697Z,56.00
2024-03-10T18:05:43.509Z,53.00
2024-03-10T18:10:50.707Z,73.00
2024-03-10T18:13:19.561Z,70.00
2024-03-10T18:15:53.426Z,61.50
2024-03-10T18:18:22.003Z,62.00
2024-03-10T18:21:01.552Z,57.00
2024-03-10T18:23:32.697Z,54.00
2024-03-10T18:28:37.492Z,59.00
2024-03-10T18:31:12.755Z,60.00
2024-03-10T18:33:44.318Z,58.00
2024-03-10T18:36:16.716Z,58.00
2024-03-10T18:38:47.956Z,56.00
2024-03-10T18:44:02.624Z,57.00
2024-03-10T18:46:42.206Z,87.00
2024-03-10T18:49:11.051Z,60.00
2024-03-10T18:51:39.226Z,60.00
2024-03-10T18:59:09.608Z,172.00
2024-03-10T19:01:42.261Z,58.50
2024-03-10T19:04:14.312Z,71.50
2024-03-10T19:06:43.834Z,74.00
2024-03-10T19:11:41.150Z,60.00
2024-03-10T19:14:13.600Z,61.00
2024-03-10T19:16:44.381Z,62.00
2024-03-10T19:19:12.792Z,61.00
2024-03-10T19:21:43.989Z,62.50
2024-03-10T19:24:12.431Z,60.00
2024-03-10T19:26:43.781Z,58.50
2024-03-10T19:29:17.454Z,59.50
2024-03-10T19:31:51.544Z,62.00
2024-03-10T19:34:20.688Z,63.00
2024-03-10T19:39:20.010Z,72.00
2024-03-10T19:41:54.907Z,59.00
2024-03-10T19:44:28.880Z,78.00
2024-03-10T19:46:57.486Z,67.50
2024-03-10T19:49:25.919Z,67.00
2024-03-10T19:51:55.722Z,71.00
2024-03-10T19:57:06.760Z,122.00
2024-03-10T19:59:38.194Z,92.00
2024-03-10T20:04:37.474Z,104.50
2024-03-10T20:07:07.293Z,131.00
2024-03-10T20:09:36.205Z,97.00
2024-03-10T20:12:16.486Z,165.00
2024-03-10T20:14:47.289Z,129.00
2024-03-10T20:17:30.946Z,105.50
2024-03-10T20:20:23.999Z,72.00
2024-03-10T20:22:56.015Z,72.00
2024-03-10T20:30:38.546Z,81.00
2024-03-10T20:33:15.810Z,86.50
2024-03-10T20:35:47.364Z,103.00
2024-03-10T20:38:19.109Z,91.00
2024-03-10T20:40:47.425Z,86.00
2024-03-10T20:43:15.935Z,83.00
2024-03-10T20:45:52.426Z,101.00
2024-03-10T20:48:25.608Z,89.00
2024-03-10T20:50:54.157Z,115.00
2024-03-10T20:53:26.622Z,113.50
2024-03-10T20:55:56.616Z,102.00
2024-03-10T20:58:25.698Z,92.00
2024-03-10T21:00:55.967Z,90.00
2024-03-10T21:03:25.522Z,83.00
2024-03-10T21:05:56.707Z,82.00
2024-03-10T21:08:25.306Z,61.50
2024-03-10T21:10:59.207Z,73.00
2024-03-10T21:13:31.967Z,68.00
2024-03-10T21:16:05.691Z,64.00
2024-03-10T21:18:39.147Z,66.00
2024-03-10T21:21:12.657Z,64.50
2024-03-10T21:23:49.949Z,63.00
2024-03-10T21:26:21.747Z,66.50
2024-03-10T21:28:53.452Z,62.00
2024-03-10T21:31:29.236Z,64.00
2024-03-10T21:33:58.004Z,61.00
2024-03-10T21:36:39.035Z,68.00
2024-03-10T21:39:13.406Z,66.00
2024-03-10T21:41:42.319Z,65.00
2024-03-10T21:44:29.253Z,63.00
2024-03-10T21:47:25.748Z,60.00
2024-03-10T21:50:15.946Z,58.00
2024-03-10T21:53:12.101Z,59.50
2024-03-10T21:55:47.189Z,58.00
2024-03-10T21:58:30.151Z,58.00
2024-03-10T22:01:15.222Z,61.00
2024-03-10T22:04:14.784Z,60.00
2024-03-10T22:07:11.069Z,56.00
2024-03-10T22:09:39.734Z,58.50
2024-03-10T22:12:23.247Z,54.00
2024-03-10T22:15:00.718Z,58.00
2024-03-10T22:17:51.574Z,58.50
2024-03-10T22:20:26.555Z,58.00
2024-03-10T22:22:58.602Z,60.00
2024-03-10T22:25:28.066Z,58.00
2024-03-10T22:30:33.600Z,58.00
2024-03-10T22:33:09.940Z,59.00
2024-03-10T22:35:38.909Z,57.50
2024-03-10T22:40:53.909Z,60.00
2024-03-10T22:43:27.021Z,52.00
2024-03-10T22:46:01.111Z,56.50
2024-03-10T22:51:06.093Z,61.00
2024-03-10T22:53:37.868Z,55.00
2024-03-10T22:56:09.909Z,59.00
2024-03-10T22:58:40.187Z,61.00
2024-03-10T23:01:16.277Z,60.00
2024-03-10T23:03:53.128Z,56.00
2024-03-10T23:06:33.621Z,57.50
2024-03-10T23:09:09.913Z,60.00
2024-03-10T23:11:42.747Z,56.00
2024-03-10T23:14:14.328Z,58.00
2024-03-10T23:16:44.157Z,58.50
2024-03-10T23:19:15.813Z,57.00
2024-03-10T23:21:48.150Z,57.00
2024-03-10T23:24:23.082Z,55.00
2024-03-10T23:26:58.271Z,56.50
2024-03-10T23:29:32.153Z,50.00
2024-03-10T23:32:00.726Z,49.00
2024-03-10T23:34:32.032Z,42.00
2024-03-10T23:37:05.053Z,45.00
2024-03-10T23:39:33.705Z,49.50
2024-03-10T23:42:04.613Z,48.00
2024-03-10T23:44:35.455Z,44.00
2024-03-10T23:47:07.700Z,49.00
2024-03-10T23:52:14.303Z,47.50
2024-03-10T23:57:14.331Z,53.00
2024-03-10T23:59:42.939Z,46.00
